Time;durP1;ratioP1;P1;durP2;ratioP2;P2;SDS_P1;SDS_P2;PMS_P1;PMS_P2;Temp;Humidity;BMP_temperature;BMP_pressure;BME280_temperature;BME280_humidity;BME280_pressure;Samples;Min_cycle;Max_cycle;Signal;HPM_P1;HPM_P2
2023/01/25 00:01:34;;;;;;;;;40.50;35.25;;;;;5.09;67.77;102748.22;6265029;22;45606;-79
2023/01/25 00:03:59;;;;;;;;;43.75;34.50;;;;;4.85;68.18;102700.06;6266369;22;46661;-77
2023/01/25 00:06:25;;;;;;;;;37.00;30.25;;;;;5.00;67.84;102722.38;6266187;22;45985;-78
2023/01/25 00:08:51;;;;;;;;;40.50;30.50;;;;;5.07;68.08;102734.41;6267656;22;45971;-77
2023/01/25 00:11:16;;;;;;;;;38.25;31.50;;;;;5.08;68.25;102736.94;6265497;22;47065;-78
2023/01/25 00:13:42;;;;;;;;;42.50;34.75;;;;;5.07;67.85;102731.81;6267131;22;45935;-76
2023/01/25 00:16:08;;;;;;;;;37.25;32.50;;;;;5.10;68.32;102729.16;6267668;22;45627;-77
2023/01/25 00:18:34;;;;;;;;;40.50;34.00;;;;;5.11;68.06;102736.06;6266742;22;45503;-78
2023/01/25 00:20:59;;;;;;;;;39.50;29.75;;;;;5.13;67.97;102736.06;6265385;22;46425;-78
2023/01/25 00:23:24;;;;;;;;;43.75;38.25;;;;;5.15;68.15;102729.06;6266572;22;46943;-78
2023/01/25 00:25:56;;;;;;;;;31.50;25.75;;;;;5.15;67.85;102729.94;6267090;22;45712;-78
2023/01/25 00:28:22;;;;;;;;;32.50;26.75;;;;;5.13;68.02;102718.69;6239908;22;45907;-77
2023/01/25 00:30:47;;;;;;;;;44.00;33.00;;;;;5.11;67.98;102722.22;6266750;22;46117;-78
2023/01/25 00:33:15;;;;;;;;;42.50;31.00;;;;;5.17;67.98;102732.53;6264684;22;47026;-77
2023/01/25 00:35:43;;;;;;;;;35.50;31.75;;;;;5.18;68.01;102727.31;6266709;22;45736;-78
2023/01/25 00:38:27;;;;;;;;;45.25;29.75;;;;;5.15;67.98;102719.53;6239154;22;46007;-78
2023/01/25 00:40:53;;;;;;;;;42.25;30.75;;;;;5.19;68.19;102733.34;6264698;22;47652;-78
2023/01/25 00:43:18;;;;;;;;;43.50;31.00;;;;;5.16;68.43;102726.47;6266388;22;45832;-77
2023/01/25 00:45:44;;;;;;;;;26.75;25.75;;;;;5.17;67.93;102732.53;6266229;22;45700;-77
2023/01/25 00:48:09;;;;;;;;;38.25;27.00;;;;;5.09;68.21;102714.44;6266626;22;45701;-77
2023/01/25 00:50:38;;;;;;;;;52.25;31.25;;;;;5.16;67.86;102725.59;6266489;22;46363;-77
2023/01/25 00:53:03;;;;;;;;;37.50;33.25;;;;;5.14;67.97;102720.41;6238421;22;47054;-78
2023/01/25 00:55:29;;;;;;;;;34.50;28.00;;;;;5.13;68.45;102721.28;6267714;22;45870;-79
2023/01/25 00:57:54;;;;;;;;;39.25;34.50;;;;;5.12;68.12;102716.16;6240570;22;45906;-77
2023/01/25 01:00:19;;;;;;;;;37.75;34.25;;;;;5.10;68.50;102718.75;6268121;22;45546;-77
2023/01/25 01:02:45;;;;;;;;;45.75;39.75;;;;;5.13;68.35;102721.28;6267141;22;45702;-76
2023/01/25 01:05:10;;;;;;;;;38.00;31.00;;;;;5.09;68.09;102709.25;6267517;22;45646;-76
2023/01/25 01:07:36;;;;;;;;;39.00;33.00;;;;;5.13;68.51;102710.91;6269074;22;45408;-77
2023/01/25 01:10:01;;;;;;;;;34.25;26.25;;;;;5.15;68.19;102713.50;6267506;22;45468;-77
2023/01/25 01:12:27;;;;;;;;;39.75;33.00;;;;;5.14;68.02;102719.56;6267198;22;46186;-77
2023/01/25 01:14:53;;;;;;;;;38.75;32.25;;;;;5.15;68.33;102722.16;6268155;22;45585;-79
2023/01/25 01:17:18;;;;;;;;;47.75;33.50;;;;;5.16;68.29;102712.63;6241927;22;45895;-76
2023/01/25 01:19:44;;;;;;;;;31.50;28.00;;;;;5.15;68.60;102716.94;6269104;22;45586;-77
2023/01/25 01:22:09;;;;;;;;;37.50;31.25;;;;;5.07;68.57;102692.84;6266248;22;45593;-77
2023/01/25 01:24:35;;;;;;;;;41.75;33.25;;;;;5.03;68.47;102684.22;6268185;22;45602;-75
2023/01/25 01:27:03;;;;;;;;;43.25;31.25;;;;;5.15;68.40;102706.56;6268136;22;45681;-77
2023/01/25 01:29:28;;;;;;;;;39.75;32.25;;;;;5.13;68.83;102713.50;6267154;22;45659;-76
2023/01/25 01:31:55;;;;;;;;;39.00;30.75;;;;;5.14;68.18;102715.22;6266665;22;45716;-76
2023/01/25 01:34:20;;;;;;;;;33.75;26.50;;;;;5.14;68.64;102711.75;6266852;22;46271;-77
2023/01/25 01:36:46;;;;;;;;;38.25;30.75;;;;;5.04;68.79;102701.53;6267837;22;45683;-77
2023/01/25 01:39:11;;;;;;;;;40.00;32.75;;;;;5.14;68.52;102714.38;6267610;22;46219;-77
2023/01/25 01:41:37;;;;;;;;;30.00;22.50;;;;;5.05;68.57;102700.66;6267318;22;46259;-77
2023/01/25 01:44:03;;;;;;;;;49.25;34.00;;;;;5.14;68.13;102714.38;6267716;22;45527;-77
2023/01/25 01:46:37;;;;;;;;;39.25;34.00;;;;;5.10;68.37;102703.16;6268521;22;45919;-78
2023/01/25 01:49:10;;;;;;;;;40.25;32.25;;;;;5.07;68.44;102703.22;6244657;22;46843;-78
2023/01/25 01:51:43;;;;;;;;;38.00;31.50;;;;;5.13;68.21;102712.66;6268710;22;47195;-77
2023/01/25 01:54:15;;;;;;;;;31.50;27.75;;;;;5.12;68.29;102711.81;6267662;22;45981;-76
2023/01/25 01:57:06;;;;;;;;;25.00;18.25;;;;;5.14;68.31;102728.22;6268793;22;45597;-76
2023/01/25 01:59:55;;;;;;;;;35.50;30.75;;;;;5.13;68.42;102728.25;6267544;22;48717;-78
2023/01/25 02:02:23;;;;;;;;;41.00;30.75;;;;;5.12;68.47;102717.00;6265479;22;47032;-77
2023/01/25 02:04:50;;;;;;;;;46.25;33.00;;;;;5.13;68.41;102725.66;6267268;22;45904;-76
2023/01/25 02:07:21;;;;;;;;;39.50;32.25;;;;;5.06;68.51;102709.31;6267510;22;45565;-76
2023/01/25 02:09:49;;;;;;;;;34.25;28.75;;;;;5.10;68.65;102720.50;6267465;22;47156;-75
2023/01/25 02:12:16;;;;;;;;;42.00;32.25;;;;;5.16;68.39;102734.25;6214042;22;47181;-78
2023/01/25 02:14:52;;;;;;;;;39.50;32.50;;;;;5.16;68.37;102730.81;6268034;22;45593;-77
2023/01/25 02:17:39;;;;;;;;;43.50;29.00;;;;;5.15;68.39;102726.47;6267597;22;45571;-77
2023/01/25 02:20:13;;;;;;;;;39.00;33.50;;;;;5.13;68.60;102729.09;6268689;22;48462;-78
2023/01/25 02:23:14;;;;;;;;;44.50;38.25;;;;;5.11;68.37;102725.69;6271524;22;46034;-76
2023/01/25 02:25:40;;;;;;;;;41.25;27.75;;;;;5.07;68.76;102729.22;6271745;22;45703;-77
2023/01/25 02:28:11;;;;;;;;;34.75;28.50;;;;;5.11;68.42;102724.81;6271882;22;45602;-77
2023/01/25 02:30:37;;;;;;;;;42.00;29.75;;;;;5.08;68.96;102730.91;6272087;22;45580;-77
2023/01/25 02:33:02;;;;;;;;;36.25;27.75;;;;;5.00;68.85;102715.44;6270541;22;46206;-77
2023/01/25 02:35:47;;;;;;;;;39.50;35.00;;;;;5.07;68.48;102726.59;6271824;22;45539;-78
2023/01/25 02:38:15;;;;;;;;;45.50;39.50;;;;;5.08;68.89;102730.91;6271404;22;45413;-77
2023/01/25 02:40:48;;;;;;;;;49.25;36.50;;;;;5.07;68.52;102734.41;6271062;22;47617;-77
2023/01/25 02:43:14;;;;;;;;;35.50;30.75;;;;;5.05;68.67;102726.63;6270732;22;46947;-79
2023/01/25 02:45:42;;;;;;;;;44.25;36.75;;;;;5.04;68.77;102727.50;6270185;22;45510;-78
2023/01/25 02:48:08;;;;;;;;;31.75;26.50;;;;;5.02;68.64;102731.00;6271175;22;45771;-77
2023/01/25 02:50:33;;;;;;;;;39.50;33.00;;;;;4.92;69.19;102719.88;6270608;22;47571;-78
2023/01/25 02:52:58;;;;;;;;;42.33;30.00;;;;;4.98;69.14;102732.78;6270820;22;47557;-78
2023/01/25 02:55:23;;;;;;;;;47.25;39.25;;;;;4.94;69.16;102730.25;6271720;22;45531;-78
2023/01/25 02:57:49;;;;;;;;;57.50;39.50;;;;;4.88;69.25;102709.53;6271460;22;45884;-78
2023/01/25 03:00:14;;;;;;;;;48.00;38.50;;;;;4.92;69.20;102713.81;6270481;22;45632;-78
2023/01/25 03:02:40;;;;;;;;;37.75;33.75;;;;;4.92;68.90;102712.06;6271065;22;47111;-78
2023/01/25 03:05:05;;;;;;;;;47.00;39.50;;;;;4.94;69.30;102718.13;6273800;22;45567;-78
2023/01/25 03:07:31;;;;;;;;;47.75;39.50;;;;;4.90;68.93;102711.25;6273006;22;45409;-77
2023/01/25 03:09:56;;;;;;;;;40.75;34.25;;;;;4.91;69.11;102709.53;6271770;22;45577;-80
2023/01/25 03:12:22;;;;;;;;;53.00;37.75;;;;;4.92;69.09;102712.06;6270939;22;45980;-78
2023/01/25 03:14:48;;;;;;;;;40.25;35.00;;;;;4.85;69.40;102710.47;6271515;22;45598;-77
2023/01/25 03:17:14;;;;;;;;;50.25;36.25;;;;;4.87;69.68;102716.47;6272027;22;45682;-78
2023/01/25 03:19:39;;;;;;;;;44.50;36.00;;;;;4.83;69.89;102712.22;6270050;22;46400;-77
2023/01/25 03:22:05;;;;;;;;;30.75;27.75;;;;;4.84;69.77;102719.13;6271450;22;46017;-76
2023/01/25 03:24:31;;;;;;;;;38.00;33.50;;;;;4.79;70.01;102713.13;6270670;22;45895;-77
2023/01/25 03:27:30;;;;;;;;;37.50;31.00;;;;;4.76;69.60;102712.28;6271289;22;45778;-78
2023/01/25 03:29:48;;;;;;;;;39.00;27.00;;;;;4.78;70.17;102720.94;6265150;22;46934;-77
2023/01/25 03:32:13;;;;;;;;;43.50;38.50;;;;;4.74;69.80;102709.75;6270357;22;46862;-76
2023/01/25 03:34:39;;;;;;;;;44.75;33.25;;;;;4.77;70.23;102720.06;6270698;22;45584;-77
2023/01/25 03:40:26;;;;;;;;;43.00;34.50;;;;;4.78;70.09;102710.56;6271133;22;46078;-78
2023/01/25 03:42:52;;;;;;;;;46.00;36.00;;;;;4.78;70.07;102713.16;6270654;22;45796;-78
2023/01/25 03:45:18;;;;;;;;;46.75;30.00;;;;;4.78;70.44;102711.41;6271030;22;45871;-78
2023/01/25 03:47:45;;;;;;;;;33.00;31.75;;;;;4.79;70.50;102713.13;6271211;22;45816;-77
2023/01/25 03:50:10;;;;;;;;;39.00;32.75;;;;;4.80;70.37;102712.25;6271146;22;47444;-79
2023/01/25 03:52:40;;;;;;;;;39.00;31.75;;;;;4.67;70.10;102689.94;6272879;22;45969;-79
2023/01/25 03:55:09;;;;;;;;;32.25;25.00;;;;;4.72;70.45;102693.31;6271824;22;45692;-78
2023/01/25 03:57:34;;;;;;;;;35.25;27.00;;;;;4.77;70.54;102712.28;6271971;22;45404;-77
2023/01/25 04:00:00;;;;;;;;;34.00;26.50;;;;;4.75;70.60;102705.41;6271396;22;46386;-77
2023/01/25 04:02:25;;;;;;;;;37.75;27.75;;;;;4.75;70.61;102705.41;6244605;22;47037;-77
2023/01/25 04:04:50;;;;;;;;;40.00;35.00;;;;;4.72;71.18;102695.06;6272281;22;45427;-76
2023/01/25 04:10:38;;;;;;;;;40.00;34.25;;;;;4.65;71.12;102691.66;6271009;22;45400;-77
2023/01/25 04:13:03;;;;;;;;;44.00;32.25;;;;;4.61;71.23;102687.41;6271523;22;45566;-76
2023/01/25 04:15:28;;;;;;;;;46.50;37.75;;;;;4.70;71.44;102702.84;6270998;22;45661;-78
2023/01/25 04:17:55;;;;;;;;;41.25;31.75;;;;;4.69;71.44;102705.50;6243466;22;45884;-78
2023/01/25 04:20:21;;;;;;;;;38.75;29.75;;;;;4.69;71.34;102702.91;6270779;22;45809;-77
2023/01/25 04:26:15;;;;;;;;;37.75;32.50;;;;;4.63;71.33;102709.88;6270754;22;45623;-78
2023/01/25 04:28:41;;;;;;;;;48.25;34.50;;;;;4.42;71.27;102675.56;6273163;22;45807;-78
2023/01/25 04:31:06;;;;;;;;;41.50;31.00;;;;;4.58;71.62;102705.63;6269766;22;47350;-78
2023/01/25 04:33:33;;;;;;;;;29.25;27.50;;;;;4.60;71.36;102711.63;6271773;22;46913;-76
2023/01/25 04:35:58;;;;;;;;;38.25;29.75;;;;;4.60;71.60;102716.81;6272262;22;45377;-77
2023/01/25 04:38:24;;;;;;;;;45.75;30.00;;;;;4.59;71.32;102704.72;6272805;22;45590;-77
2023/01/25 04:40:50;;;;;;;;;40.00;31.75;;;;;4.54;71.43;102702.19;6272727;22;46311;-76
2023/01/25 04:43:16;;;;;;;;;37.50;30.75;;;;;4.59;71.46;102709.91;6271205;22;47191;-77
2023/01/25 04:45:42;;;;;;;;;39.25;31.25;;;;;4.52;71.53;102693.59;6271810;22;45487;-78
2023/01/25 04:48:10;;;;;;;;;28.25;18.75;;;;;4.58;71.89;102701.31;6271960;22;45550;-77
2023/01/25 04:50:36;;;;;;;;;40.75;25.75;;;;;4.56;71.70;102703.03;6271048;22;46739;-78
2023/01/25 04:56:23;;;;;;;;;45.25;28.00;;;;;4.55;71.46;102697.88;6271911;22;45475;-77
2023/01/25 04:58:48;;;;;;;;;40.25;30.75;;;;;4.55;71.81;102697.88;6271608;22;45861;-78
2023/01/25 05:01:14;;;;;;;;;42.50;30.00;;;;;4.53;71.86;102697.91;6271237;22;47448;-76
2023/01/25 05:03:39;;;;;;;;;34.75;25.25;;;;;4.53;71.44;102695.31;6243805;22;47127;-78
2023/01/25 05:06:04;;;;;;;;;39.00;28.50;;;;;4.54;71.70;102694.41;6270452;22;45479;-77
2023/01/25 05:11:52;;;;;;;;;39.25;24.75;;;;;4.49;71.41;102687.56;6271140;22;45838;-77
2023/01/25 05:14:17;;;;;;;;;31.50;25.75;;;;;4.49;71.50;102682.38;6272952;22;45476;-77
2023/01/25 05:16:42;;;;;;;;;38.50;26.25;;;;;4.46;71.80;102682.41;6272415;22;45606;-78
2023/01/25 05:19:09;;;;;;;;;27.25;24.50;;;;;4.48;72.12;102697.06;6273015;22;45829;-78
2023/01/25 05:24:21;;;;;;;;;32.25;24.00;;;;;4.46;71.68;102685.00;6271552;22;46234;-76
2023/01/25 05:27:05;;;;;;;;;18.25;15.75;;;;;4.41;71.84;102676.44;6244862;22;45874;-77
2023/01/25 05:29:36;;;;;;;;;31.25;25.25;;;;;4.41;71.47;102672.09;6249362;22;45816;-78
2023/01/25 05:32:10;;;;;;;;;34.00;23.75;;;;;4.20;71.81;102638.63;6271518;22;45450;-77
2023/01/25 05:34:36;;;;;;;;;24.75;20.25;;;;;4.44;71.61;102679.81;6271803;22;46201;-77
2023/01/25 05:37:04;;;;;;;;;26.75;21.50;;;;;4.43;71.34;102680.69;6271952;22;45508;-77
2023/01/25 05:39:29;;;;;;;;;22.25;18.25;;;;;4.43;71.62;102683.28;6272592;22;45594;-77
2023/01/25 05:41:55;;;;;;;;;26.25;23.75;;;;;4.41;71.26;102679.88;6243960;22;47276;-76
2023/01/25 05:44:20;;;;;;;;;29.25;19.50;;;;;4.42;71.24;102683.34;6271247;22;46214;-77
2023/01/25 05:46:46;;;;;;;;;16.25;12.75;;;;;4.39;71.58;102679.03;6271487;22;45599;-77
2023/01/25 05:49:12;;;;;;;;;23.75;17.25;;;;;4.40;71.50;102678.16;6272448;22;45661;-78
2023/01/25 05:51:38;;;;;;;;;21.75;18.00;;;;;4.42;71.33;102685.94;6271710;22;47162;-77
2023/01/25 05:57:27;;;;;;;;;18.00;14.25;;;;;4.29;70.94;102661.00;6272573;22;45617;-77
2023/01/25 05:59:53;;;;;;;;;16.50;14.25;;;;;4.35;71.40;102681.69;6273311;22;45670;-77
2023/01/25 06:02:18;;;;;;;;;23.50;17.75;;;;;4.34;70.83;102685.16;6273018;22;45447;-77
2023/01/25 06:04:43;;;;;;;;;20.00;16.75;;;;;4.18;71.25;102656.81;6274315;22;47223;-78
2023/01/25 06:07:09;;;;;;;;;25.00;17.25;;;;;4.29;71.26;102667.06;6273203;22;45570;-76
2023/01/25 06:09:34;;;;;;;;;16.50;14.25;;;;;4.26;71.19;102667.09;6271980;22;45726;-78
2023/01/25 06:11:59;;;;;;;;;22.50;16.75;;;;;4.27;70.85;102673.13;6271745;22;46353;-77
2023/01/25 06:14:25;;;;;;;;;20.50;14.75;;;;;4.28;70.90;102670.50;6271399;22;45989;-77
2023/01/25 06:16:50;;;;;;;;;12.25;10.25;;;;;4.23;71.02;102664.53;6274058;22;45524;-77
2023/01/25 06:19:15;;;;;;;;;21.00;12.00;;;;;4.28;70.51;102674.84;6273531;22;45452;-77
2023/01/25 06:21:41;;;;;;;;;12.75;10.00;;;;;4.23;70.49;102672.31;6271964;22;46247;-77
2023/01/25 06:27:28;;;;;;;;;16.00;10.25;;;;;4.22;70.42;102668.84;6271794;22;45476;-78
2023/01/25 06:29:53;;;;;;;;;20.75;14.00;;;;;4.23;70.54;102669.72;6243791;22;45764;-78
2023/01/25 06:32:19;;;;;;;;;14.25;10.25;;;;;4.23;70.63;102670.56;6270457;22;46703;-77
2023/01/25 06:34:45;;;;;;;;;16.25;13.75;;;;;4.23;70.38;102667.97;6271165;22;46150;-78
2023/01/25 06:37:10;;;;;;;;;14.75;12.50;;;;;4.23;70.49;102672.31;6270789;22;45670;-76
2023/01/25 06:43:09;;;;;;;;;12.25;10.50;;;;;4.23;70.61;102665.38;6271697;22;45989;-77
2023/01/25 06:45:35;;;;;;;;;12.75;12.00;;;;;4.20;70.45;102652.47;6272221;22;46547;-77
2023/01/25 06:48:00;;;;;;;;;13.50;11.50;;;;;4.28;70.49;102662.72;6271593;22;45730;-78
2023/01/25 06:50:26;;;;;;;;;21.00;17.00;;;;;4.29;70.32;102667.06;6272397;22;45690;-77
2023/01/25 06:52:52;;;;;;;;;20.00;14.75;;;;;4.29;70.17;102664.47;6243888;22;47400;-76
2023/01/25 06:55:18;;;;;;;;;23.75;13.00;;;;;4.28;70.23;102659.28;6271659;22;46170;-78
2023/01/25 06:57:45;;;;;;;;;11.00;11.00;;;;;4.28;70.13;102661.88;6270551;22;45629;-77
2023/01/25 07:00:10;;;;;;;;;12.50;12.50;;;;;4.21;70.09;102648.97;6268413;22;45527;-76
2023/01/25 07:02:36;;;;;;;;;16.75;12.00;;;;;4.25;70.14;102656.72;6270744;22;46497;-79
2023/01/25 07:05:04;;;;;;;;;10.75;7.00;;;;;4.25;70.23;102654.13;6271680;22;46970;-77
2023/01/25 07:07:29;;;;;;;;;16.00;10.75;;;;;4.22;70.27;102655.88;6272189;22;45816;-77
2023/01/25 07:13:16;;;;;;;;;17.50;11.50;;;;;4.14;70.31;102652.53;6271485;22;46068;-70
2023/01/25 07:15:41;;;;;;;;;12.75;8.00;;;;;4.12;70.43;102648.22;6272193;22;46186;-72
2023/01/25 07:18:07;;;;;;;;;12.00;10.00;;;;;4.16;70.14;102655.09;6269802;22;45619;-73
2023/01/25 07:20:32;;;;;;;;;11.50;11.25;;;;;4.16;70.00;102650.75;6271052;22;45575;-73
2023/01/25 07:22:57;;;;;;;;;15.50;15.50;;;;;4.05;70.15;102634.47;6271029;22;46272;-73
2023/01/25 07:28:46;;;;;;;;;18.75;13.75;;;;;4.15;69.87;102654.25;6270752;22;45727;-72
2023/01/25 07:31:12;;;;;;;;;16.00;13.25;;;;;4.07;70.11;102650.00;6270634;22;45722;-70
2023/01/25 07:33:37;;;;;;;;;10.00;7.75;;;;;4.01;70.42;102639.72;6270101;22;45884;-73
2023/01/25 07:36:06;;;;;;;;;14.00;9.00;;;;;4.12;70.23;102653.41;6271393;22;45546;-72
2023/01/25 07:38:31;;;;;;;;;11.50;10.50;;;;;4.10;69.84;102644.81;6270742;22;45856;-72
2023/01/25 07:40:56;;;;;;;;;14.00;11.50;;;;;4.09;69.90;102643.09;6270891;22;45539;-71
2023/01/25 07:43:23;;;;;;;;;22.50;14.25;;;;;4.13;70.40;102653.41;6270522;22;46270;-74
2023/01/25 07:45:49;;;;;;;;;11.25;7.00;;;;;4.11;70.16;102651.69;6243055;22;47091;-73
2023/01/25 07:48:15;;;;;;;;;14.50;12.00;;;;;4.15;69.86;102654.25;6270470;22;45583;-73
2023/01/25 07:50:40;;;;;;;;;13.50;10.75;;;;;4.15;69.78;102659.44;6269552;22;45675;-72
2023/01/25 07:53:06;;;;;;;;;16.50;10.25;;;;;4.16;69.99;102663.72;6270073;22;46035;-72
2023/01/25 07:58:55;;;;;;;;;14.50;8.50;;;;;4.17;69.92;102659.41;6270083;22;45592;-75
2023/01/25 08:01:25;;;;;;;;;16.25;10.00;;;;;4.15;69.75;102663.78;6270217;22;45568;-74
2023/01/25 08:03:51;;;;;;;;;16.25;11.75;;;;;4.12;69.79;102666.38;6270021;22;47212;-75
2023/01/25 08:06:21;;;;;;;;;16.00;12.75;;;;;4.08;70.22;102660.38;6270503;22;46027;-74
2023/01/25 08:08:49;;;;;;;;;17.25;13.50;;;;;4.04;69.94;102650.06;6272100;22;45899;-76
2023/01/25 08:11:19;;;;;;;;;20.00;18.75;;;;;4.05;69.79;102657.81;6244192;22;45739;-73
2023/01/25 08:13:45;;;;;;;;;21.75;16.00;;;;;4.03;70.04;102659.56;6271837;22;46574;-74
2023/01/25 08:16:11;;;;;;;;;21.75;13.00;;;;;4.04;70.03;102665.63;6271687;22;45574;-73
2023/01/25 08:18:37;;;;;;;;;24.50;17.75;;;;;4.02;70.15;102664.75;6271690;22;45795;-74
2023/01/25 08:21:02;;;;;;;;;20.00;16.75;;;;;4.04;70.11;102665.63;6271000;22;45675;-73
2023/01/25 08:23:29;;;;;;;;;17.75;16.00;;;;;4.02;70.16;102664.75;6243200;22;47925;-73
2023/01/25 08:29:17;;;;;;;;;23.00;17.00;;;;;4.01;70.29;102660.44;6270173;22;45652;-73
2023/01/25 08:31:43;;;;;;;;;21.00;16.00;;;;;3.94;69.93;102640.69;6242572;22;45620;-73
2023/01/25 08:34:10;;;;;;;;;19.75;16.50;;;;;3.99;70.02;102664.81;6269884;22;47319;-74
2023/01/25 08:36:36;;;;;;;;;20.50;17.00;;;;;3.98;70.23;102658.78;6269787;22;46402;-75
2023/01/25 08:45:45;;;;;;;;;24.50;20.50;;;;;3.94;69.95;102641.50;6269037;22;45914;-75
2023/01/25 08:48:14;;;;;;;;;23.00;14.00;;;;;3.97;70.44;102646.69;6268827;22;47006;-72
2023/01/25 08:50:45;;;;;;;;;22.25;17.00;;;;;3.99;70.09;102642.34;6268090;22;45862;-74
2023/01/25 08:53:10;;;;;;;;;21.25;16.75;;;;;3.99;69.94;102637.16;6269073;22;45764;-74
2023/01/25 08:55:35;;;;;;;;;22.25;17.75;;;;;4.05;70.01;102644.00;6270184;22;46276;-75
2023/01/25 08:58:01;;;;;;;;;23.00;18.00;;;;;4.06;70.17;102640.50;6269241;22;45778;-74
2023/01/25 09:00:26;;;;;;;;;21.25;17.00;;;;;4.07;70.01;102632.72;6269253;22;45898;-73
2023/01/25 09:02:51;;;;;;;;;20.50;16.75;;;;;4.09;70.08;102630.13;6270137;22;45746;-73
2023/01/25 09:05:17;;;;;;;;;24.25;23.00;;;;;4.10;69.96;102630.09;6269649;22;46390;-73
2023/01/25 09:07:42;;;;;;;;;20.00;18.00;;;;;3.95;70.06;102614.69;6270103;22;46486;-75
2023/01/25 09:13:29;;;;;;;;;28.00;20.00;;;;;4.10;70.09;102643.03;6269160;22;45652;-74
2023/01/25 09:16:06;;;;;;;;;28.50;25.00;;;;;4.11;70.19;102633.53;6241903;22;48691;-74
2023/01/25 09:18:34;;;;;;;;;30.00;23.25;;;;;4.01;69.97;102626.75;6269188;22;46132;-75
2023/01/25 09:21:05;;;;;;;;;28.75;23.00;;;;;4.05;70.01;102628.44;6268494;22;45863;-74
2023/01/25 09:23:31;;;;;;;;;30.75;20.25;;;;;3.99;70.06;102629.38;6269341;22;45511;-73
2023/01/25 09:29:18;;;;;;;;;23.25;18.75;;;;;3.97;70.49;102627.66;6269948;22;46114;-75
2023/01/25 09:31:43;;;;;;;;;24.75;20.00;;;;;4.00;70.43;102640.56;6270499;22;45885;-75
2023/01/25 09:34:12;;;;;;;;;22.50;18.00;;;;;3.93;70.29;102638.94;6269619;22;45680;-74
2023/01/25 09:36:38;;;;;;;;;19.25;18.00;;;;;3.88;70.23;102628.63;6270238;22;46288;-75
2023/01/25 09:39:03;;;;;;;;;26.00;20.00;;;;;3.88;70.23;102630.38;6270615;22;46923;-74
2023/01/25 09:45:02;;;;;;;;;22.50;19.50;;;;;3.87;70.22;102631.22;6269804;22;45550;-73
2023/01/25 09:47:30;;;;;;;;;19.00;17.50;;;;;3.86;70.42;102627.78;6269690;22;46844;-73
2023/01/25 09:50:33;;;;;;;;;24.25;22.75;;;;;3.84;70.39;102629.53;6267287;22;47553;-74
2023/01/25 09:53:11;;;;;;;;;23.25;18.00;;;;;3.86;70.46;102629.50;6144359;23;45859;-73
2023/01/25 09:55:38;;;;;;;;;20.00;19.00;;;;;3.88;70.35;102631.22;6145375;23;45897;-75
2023/01/25 09:58:09;;;;;;;;;16.00;11.75;;;;;3.88;70.08;102635.56;6143583;23;47279;-74
2023/01/25 10:00:41;;;;;;;;;25.00;19.00;;;;;3.82;70.24;102625.25;6118553;23;48053;-74
2023/01/25 10:03:27;;;;;;;;;27.25;22.00;;;;;3.87;70.40;102637.28;6145217;23;45743;-74
2023/01/25 10:05:56;;;;;;;;;23.75;18.50;;;;;3.89;70.07;102632.91;6144336;23;45787;-73
2023/01/25 10:08:37;;;;;;;;;23.50;20.25;;;;;3.86;70.11;102630.38;6145070;23;46480;-74
2023/01/25 10:11:15;;;;;;;;;22.50;16.25;;;;;3.91;69.85;102640.69;6119421;23;46517;-76
2023/01/25 10:13:42;;;;;;;;;22.00;19.00;;;;;3.89;69.98;102632.91;6145905;23;45749;-75
2023/01/25 10:16:22;;;;;;;;;28.00;19.75;;;;;3.88;70.09;102638.16;6146285;23;45702;-74
2023/01/25 10:19:01;;;;;;;;;20.00;19.50;;;;;3.89;69.88;102638.09;6145359;23;45727;-74
2023/01/25 10:21:41;;;;;;;;;24.00;20.00;;;;;3.91;70.02;102641.56;6143555;23;46110;-73
2023/01/25 10:24:18;;;;;;;;;19.50;16.50;;;;;3.92;70.09;102634.63;6145221;23;45961;-74
2023/01/25 10:26:51;;;;;;;;;19.75;16.75;;;;;3.87;70.03;102629.50;6145469;23;45503;-74
2023/01/25 10:29:30;;;;;;;;;26.75;24.50;;;;;3.93;70.02;102634.63;6177606;22;47319;-73
2023/01/25 10:32:33;;;;;;;;;23.00;20.75;;;;;3.93;69.73;102638.94;6269275;22;46544;-75
2023/01/25 10:35:13;;;;;;;;;31.50;23.25;;;;;3.86;70.14;102638.16;6144889;23;45888;-74
2023/01/25 10:37:40;;;;;;;;;34.25;28.25;;;;;3.84;69.94;102628.66;6144530;22;45703;-73
2023/01/25 10:40:13;;;;;;;;;30.75;23.75;;;;;3.87;70.34;102633.81;6144151;23;45713;-75
2023/01/25 10:42:46;;;;;;;;;25.75;22.50;;;;;3.88;70.10;102630.38;6143903;23;46527;-73
2023/01/25 10:45:13;;;;;;;;;23.50;20.00;;;;;3.86;70.08;102624.31;6144684;23;45592;-75
2023/01/25 10:47:43;;;;;;;;;37.25;29.50;;;;;3.87;70.10;102619.13;6144417;23;45617;-73
2023/01/25 10:50:09;;;;;;;;;26.00;24.00;;;;;3.87;70.09;102626.91;6143412;23;46472;-74
2023/01/25 10:52:36;;;;;;;;;29.25;24.75;;;;;3.89;69.99;102627.72;6144586;23;46042;-75
2023/01/25 10:55:25;;;;;;;;;30.50;23.75;;;;;3.89;70.15;102622.53;6144989;23;45649;-74
2023/01/25 10:57:53;;;;;;;;;27.00;23.50;;;;;3.84;70.03;102621.75;6143966;23;45780;-73
2023/01/25 11:00:26;;;;;;;;;26.25;21.50;;;;;3.83;70.09;102619.19;6143758;23;45746;-73
2023/01/25 11:02:52;;;;;;;;;29.75;21.50;;;;;3.80;69.89;102618.34;6143822;22;46946;-72
2023/01/25 11:05:17;;;;;;;;;32.50;25.75;;;;;3.80;69.90;102626.09;6144409;23;45621;-76
2023/01/25 11:07:46;;;;;;;;;17.00;14.00;;;;;3.78;70.05;102608.84;6145487;23;45789;-73
2023/01/25 11:10:35;;;;;;;;;28.25;23.75;;;;;3.75;70.09;102603.72;6164345;22;47502;-75
2023/01/25 11:13:12;;;;;;;;;26.00;23.00;;;;;3.74;69.99;102604.56;6269191;22;45484;-75
2023/01/25 11:15:39;;;;;;;;;29.25;22.50;;;;;3.74;70.21;102601.97;6269598;22;45532;-74
2023/01/25 11:18:11;;;;;;;;;28.75;24.75;;;;;3.74;69.92;102599.38;6269249;22;45623;-73
2023/01/25 11:20:37;;;;;;;;;33.50;26.50;;;;;3.75;69.74;102596.78;6268432;22;47391;-74
2023/01/25 11:23:02;;;;;;;;;24.25;20.00;;;;;3.72;69.78;102588.19;6269431;22;45641;-74
2023/01/25 11:25:27;;;;;;;;;23.25;18.50;;;;;3.75;69.59;102580.38;6241236;22;46029;-74
2023/01/25 11:28:23;;;;;;;;;23.00;20.00;;;;;3.73;69.97;102585.56;6269221;22;45496;-75
2023/01/25 11:30:52;;;;;;;;;32.75;25.75;;;;;3.69;69.72;102580.44;6268420;22;45622;-73
2023/01/25 11:33:20;;;;;;;;;26.25;21.75;;;;;3.60;69.88;102571.03;6268417;22;45831;-75
2023/01/25 11:36:00;;;;;;;;;22.50;20.25;;;;;3.64;70.00;102569.28;6269256;22;45671;-73
2023/01/25 11:38:25;;;;;;;;;20.50;19.75;;;;;3.64;69.79;102577.03;6268657;22;45752;-74
2023/01/25 11:44:34;;;;;;;;;22.25;15.25;;;;;3.53;70.13;102552.97;6268822;22;46479;-74
2023/01/25 11:47:37;;;;;;;;;35.00;27.25;;;;;3.50;70.27;102551.28;6269147;22;45909;-74
2023/01/25 11:50:41;;;;;;;;;28.50;24.00;;;;;3.50;70.33;102543.53;6268719;22;45773;-74
2023/01/25 11:53:12;;;;;;;;;29.75;23.75;;;;;3.50;70.30;102537.47;6269609;22;46571;-74
2023/01/25 11:55:43;;;;;;;;;26.50;24.00;;;;;3.52;70.03;102533.13;6268720;22;47108;-73
2023/01/25 12:01:52;;;;;;;;;25.75;21.00;;;;;3.50;69.93;102519.34;6268514;22;45635;-74
2023/01/25 12:04:40;;;;;;;;;36.25;26.75;;;;;3.52;70.13;102502.03;6268898;22;46329;-75
2023/01/25 12:07:21;;;;;;;;;32.00;26.25;;;;;3.48;69.78;102488.25;6143817;23;46065;-74
2023/01/25 12:10:09;;;;;;;;;22.50;17.25;;;;;3.50;69.99;102489.13;6144064;23;45596;-75
2023/01/25 12:12:49;;;;;;;;;39.25;31.75;;;;;3.46;69.89;102479.63;6136003;23;46154;-74
2023/01/25 12:15:29;;;;;;;;;33.25;28.00;;;;;3.41;70.11;102467.59;6144917;23;45803;-75
2023/01/25 12:18:32;;;;;;;;;32.50;24.50;;;;;3.36;70.28;102472.84;6144384;23;47064;-74
2023/01/25 12:21:16;;;;;;;;;35.75;31.00;;;;;3.32;70.32;102455.63;6145965;23;45497;-75
2023/01/25 12:24:16;;;;;;;;;40.75;30.25;;;;;3.27;70.45;102447.91;6146385;22;45795;-74
2023/01/25 12:30:20;;;;;;;;;33.50;27.50;;;;;3.25;70.67;102431.53;6057753;23;45633;-75
2023/01/25 12:32:55;;;;;;;;;33.50;29.00;;;;;3.26;70.64;102428.06;6056579;23;45781;-74
2023/01/25 12:35:31;;;;;;;;;32.50;30.00;;;;;3.28;70.58;102428.94;6057293;23;45845;-73
2023/01/25 12:38:05;;;;;;;;;39.75;29.50;;;;;3.29;70.60;102417.66;6056373;23;45964;-73